• Join FlightAware (Why Join?)
  • Login
  • US Flag 
10:28PM EDT


 

Airport Tracker/Info


-or-


 

Live Flight TrackerFlight Track Log ✈ SWA311 ✈ 28-Apr-2013 ✈ KHOU - KPIT

Flight Track Log - Related Links

Times and Time Zones

All times are in EDT time to prevent confusion due to time zone crossing. See the SWA311 flight status page for this flight to view local times or setup timezone preferences in your user account.

Time Position Orientation Groundspeed Altitude Reporting Facility
EDT Latitude Longitude Course Direction KTS MPH feet Rate Location/Type
02:59PM 29.6333 -95.2653 65° Northeast 158 182 700  Level Houston Center
02:59PM 29.6503 -95.2225 65° Northeast 215 247 2,800 2,460 Climbing Houston Center
03:01PM 29.7208 -95.2336 352° North 242 278 5,700 3,060 Climbing Houston Center
03:01PM 29.7833 -95.2544 344° North 285 328 8,800 3,000 Climbing Houston Center
03:03PM 29.8769 -95.2844 344° North 294 338 11,900 2,640 Climbing Houston Center
03:04PM 29.9686 -95.2569 15° North 349 402 14,700 2,880 Climbing Houston Center
03:05PM 30.0617 -95.2039 26° Northeast 368 423 17,900 2,880 Climbing Houston Center
03:06PM 30.1544 -95.1500 27° Northeast 373 429 20,700 2,220 Climbing Houston Center
03:07PM 30.2525 -95.0944 26° Northeast 388 447 22,600 2,040 Climbing Houston Center
03:08PM 30.3783 -95.0208 27° Northeast 418 481 25,000 1,860 Climbing Houston Center
03:09PM 30.4772 -94.9503 32° Northeast 442 509 26,500 1,320 Climbing Houston Center
03:10PM 30.5864 -94.8672 33° Northeast 464 534 27,800 1,320 Climbing Houston Center
03:11PM 30.7244 -94.7606 34° Northeast 498 573 29,300 1,500 Climbing Houston Center
03:12PM 30.8419 -94.6686 34° Northeast 510 587 31,000 1,680 Climbing Houston Center
03:13PM 30.9594 -94.5786 33° Northeast 510 587 32,800 1,500 Climbing Houston Center
03:13PM 30.9869 -94.5567 34° Northeast 504 580 33,000 3,300 Climbing Fort Worth Center
03:14PM 31.1203 -94.4531 34° Northeast 509 586 37,000 1,500 Climbing Fort Worth Center
03:15PM 31.2411 -94.3594 34° Northeast 512 589 36,000  Descending Fort Worth Center
03:16PM 31.3558 -94.2681 34° Northeast 514 592 37,000 480 Climbing Fort Worth Center
03:17PM 31.4683 -94.1814 33° Northeast 503 579 37,000  Level Fort Worth Center
03:18PM 31.5786 -94.0825 37° Northeast 492 566 37,000  Level Fort Worth Center
03:19PM 31.6678 -93.9842 43° Northeast 487 560 37,000  Level Fort Worth Center
03:20PM 31.7631 -93.8778 43° Northeast 481 554 37,000  Level Fort Worth Center
03:21PM 31.8600 -93.7667 44° Northeast 481 554 37,000  Level Fort Worth Center
03:22PM 31.9589 -93.6550 44° Northeast 481 554 37,000  Level Fort Worth Center
03:23PM 32.0558 -93.5456 44° Northeast 486 559 37,000  Level Fort Worth Center
03:24PM 32.1506 -93.4361 44° Northeast 486 559 37,000  Level Fort Worth Center
03:25PM 32.2469 -93.3139 47° Northeast 486 559 37,000  Level Fort Worth Center
03:26PM 32.3433 -93.2039 44° Northeast 486 559 37,000  Level Fort Worth Center
03:27PM 32.4397 -93.0911 45° Northeast 486 559 37,000  Level Fort Worth Center
03:28PM 32.5361 -92.9831 43° Northeast 486 559 37,000  Level Fort Worth Center
03:29PM 32.6325 -92.8722 44° Northeast 486 559 37,000  Level Fort Worth Center
03:30PM 32.7286 -92.7611 44° Northeast 486 559 37,000  Level Fort Worth Center
03:31PM 32.8244 -92.6475 45° Northeast 486 559 37,000  Level Fort Worth Center
03:32PM 32.9225 -92.5358 44° Northeast 491 565 37,000  Level Fort Worth Center
03:33PM 33.0161 -92.4217 46° Northeast 486 559 37,000  Level Fort Worth Center
03:35PM 33.1733 -92.2411 44° Northeast 498 573 37,000  Level Memphis Center
03:36PM 33.2647 -92.1286 46° Northeast 484 557 37,000  Level Memphis Center
03:37PM 33.3622 -92.0211 43° Northeast 473 544 37,000  Level Memphis Center
03:38PM 33.4514 -91.9083 47° Northeast 473 544 37,000  Level Memphis Center
03:39PM 33.5467 -91.7953 45° Northeast 473 544 37,000  Level Memphis Center
03:40PM 33.6419 -91.6772 46° Northeast 466 536 37,000  Level Memphis Center
03:41PM 33.7350 -91.5661 45° Northeast 458 527 37,000  Level Memphis Center
03:42PM 33.8278 -91.4500 46° Northeast 458 527 37,000  Level Memphis Center
03:43PM 33.9228 -91.3386 44° Northeast 464 534 37,000  Level Memphis Center
03:44PM 34.0111 -91.2242 47° Northeast 464 534 37,000  Level Memphis Center
03:45PM 34.1058 -91.1147 44° Northeast 464 534 37,000  Level Memphis Center
03:46PM 34.1878 -91.0150 45° Northeast 464 534 37,000  Level Memphis Center
03:47PM 34.2800 -90.9050 45° Northeast 464 534 37,000  Level Memphis Center
03:48PM 34.3703 -90.7900 46° Northeast 459 528 37,000  Level Memphis Center
03:49PM 34.4644 -90.6769 45° Northeast 459 528 37,000  Level Memphis Center
03:50PM 34.5522 -90.5664 46° Northeast 459 528 37,000  Level Memphis Center
03:51PM 34.6442 -90.4531 45° Northeast 459 528 37,000  Level Memphis Center
03:52PM 34.7425 -90.3319 45° Northeast 459 528 37,000  Level Memphis Center
03:53PM 34.8319 -90.2206 46° Northeast 459 528 37,000  Level Memphis Center
03:54PM 34.9217 -90.1089 46° Northeast 459 528 37,000  Level Memphis Center
03:55PM 35.0089 -89.9894 48° Northeast 459 528 37,000  Level Memphis Center
03:56PM 35.0794 -89.8547 57° Northeast 465 535 37,000  Level Memphis Center
03:57PM 35.1456 -89.7322 57° Northeast 472 543 37,000  Level Memphis Center
03:58PM 35.2136 -89.5947 59° Northeast 472 543 37,000  Level Memphis Center
03:59PM 35.2836 -89.4592 58° Northeast 477 549 37,000  Level Memphis Center
04:00PM 35.3533 -89.3233 58° Northeast 477 549 37,000  Level Memphis Center
04:01PM 35.4292 -89.1747 58° Northeast 477 549 37,000  Level Memphis Center
04:02PM 35.5008 -89.0386 57° Northeast 477 549 37,000  Level Memphis Center
04:03PM 35.5744 -88.8969 57° Northeast 477 549 37,000  Level Memphis Center
04:04PM 35.6333 -88.7758 59° Northeast 477 549 37,000  Level Memphis Center
04:05PM 35.7044 -88.6314 59° Northeast 477 549 37,000  Level Memphis Center
04:06PM 35.7756 -88.4942 57° Northeast 477 549 37,000  Level Memphis Center
04:07PM 35.8464 -88.3544 58° Northeast 477 549 37,000  Level Memphis Center
04:08PM 35.9169 -88.2117 59° Northeast 477 549 37,000  Level Memphis Center
04:09PM 35.9894 -88.0764 56° Northeast 477 549 37,000  Level Memphis Center
04:10PM 36.0597 -87.9358 58° Northeast 477 549 37,000  Level Memphis Center
04:11PM 36.1319 -87.7922 58° Northeast 482 555 37,000  Level Memphis Center
04:12PM 36.2078 -87.6356 59° Northeast 477 549 37,000  Level Memphis Center
04:13PM 36.2797 -87.4917 58° Northeast 488 562 37,000  Level Memphis Center
04:14PM 36.3492 -87.3475 59° Northeast 488 562 37,000  Level Memphis Center
04:15PM 36.4228 -87.2028 58° Northeast 488 562 37,000  Level Memphis Center
04:16PM 36.4961 -87.0528 59° Northeast 494 568 37,000  Level Memphis Center
04:17PM 36.5592 -86.9211 59° Northeast 500 575 37,000  Level Memphis Center
04:18PM 36.6300 -86.7706 60° Northeast 500 575 37,000  Level Memphis Center
04:19PM 36.7006 -86.6228 59° Northeast 500 575 37,000  Level Memphis Center
04:20PM 36.7692 -86.4769 60° Northeast 500 575 37,000  Level Memphis Center
04:22PM 36.9128 -86.1728 59° Northeast 498 573 37,000  Level Indianapolis Center
04:23PM 36.9847 -86.0228 59° Northeast 499 574 37,000  Level Indianapolis Center
04:24PM 37.0556 -85.8722 59° Northeast 498 573 37,000  Level Indianapolis Center
04:25PM 37.1247 -85.7208 60° Northeast 495 570 37,000  Level Indianapolis Center
04:26PM 37.1956 -85.5700 59° Northeast 498 573 37,000  Level Indianapolis Center
04:27PM 37.2650 -85.4217 59° Northeast 487 560 37,000  Level Indianapolis Center
04:28PM 37.3442 -85.2461 60° Northeast 491 565 37,000  Level Indianapolis Center
04:29PM 37.4139 -85.0958 60° Northeast 495 570 37,000  Level Indianapolis Center
04:30PM 37.4861 -84.9417 59° Northeast 504 580 37,000  Level Indianapolis Center
04:31PM 37.5544 -84.7875 61° Northeast 502 578 37,000  Level Indianapolis Center
04:32PM 37.6233 -84.6339 60° Northeast 500 575 37,000  Level Indianapolis Center
04:33PM 37.6939 -84.4800 60° Northeast 505 581 37,000  Level Indianapolis Center
04:34PM 37.7758 -84.2978 60° Northeast 507 583 37,000  Level Indianapolis Center
04:35PM 37.8447 -84.1433 61° Northeast 505 581 37,000  Level Indianapolis Center
04:36PM 37.9139 -83.9867 61° Northeast 509 586 37,000  Level Indianapolis Center
04:37PM 37.9831 -83.8303 61° Northeast 511 588 37,000  Level Indianapolis Center
04:38PM 38.0517 -83.6719 61° Northeast 509 586 37,000  Level Indianapolis Center
04:39PM 38.1208 -83.5147 61° Northeast 508 585 37,000  Level Indianapolis Center
04:40PM 38.2000 -83.3306 61° Northeast 509 586 37,000  Level Indianapolis Center
04:41PM 38.2683 -83.1706 61° Northeast 511 588 37,000  Level Indianapolis Center
04:43PM 38.3369 -83.0114 61° Northeast 512 589 37,000 -240 Level Indianapolis Center
04:44PM 38.4067 -82.8522 61° Northeast 514 592 36,500 -480 Descending Indianapolis Center
04:45PM 38.4747 -82.6894 62° Northeast 518 596 36,000 -660 Descending Indianapolis Center
04:46PM 38.5550 -82.4994 62° Northeast 521 600 35,200 -1,140 Descending Indianapolis Center
04:47PM 38.6219 -82.3417 61° Northeast 528 608 33,700 -1,740 Descending Indianapolis Center
04:48PM 38.6911 -82.1761 62° Northeast 527 606 31,700 -2,040 Descending Indianapolis Center
04:49PM 38.7681 -82.0189 58° Northeast 525 604 29,500 -1,680 Descending Indianapolis Center
04:50PM 38.8856 -81.9033 37° Northeast 525 604 28,300 -1,200 Descending Indianapolis Center
04:51PM 38.9972 -81.7978 36° Northeast 497 572 27,100 -1,260 Descending Indianapolis Center
04:52PM 39.0989 -81.7019 36° Northeast 456 525 25,800 -1,320 Descending Indianapolis Center
04:53PM 39.1950 -81.6100 37° Northeast 431 496 24,500 -1,260 Descending Indianapolis Center
04:54PM 39.3081 -81.5022 36° Northeast 421 484 23,300 -1,080 Descending Indianapolis Center
04:55PM 39.4031 -81.4125 36° Northeast 423 487 22,300 -1,020 Descending Indianapolis Center
04:56PM 39.4789 -81.3389 37° Northeast 430 495 21,500 -780 Descending Cleveland Center
04:57PM 39.5692 -81.2536 36° Northeast 425 489 21,000 -300 Descending Cleveland Center
04:58PM 39.6592 -81.1656 37° Northeast 412 474 21,000 -960 Level Cleveland Center
04:59PM 39.7492 -81.0772 37° Northeast 412 474 19,100 -2,100 Descending Cleveland Center
05:00PM 39.8392 -80.9939 35° Northeast 407 468 16,900 -2,160 Descending Cleveland Center
05:01PM 39.9228 -80.9106 37° Northeast 394 453 14,800 -2,280 Descending Cleveland Center
05:02PM 40.0086 -80.8297 36° Northeast 383 441 12,400 -2,160 Descending Cleveland Center
05:03PM 40.0919 -80.7567 34° Northeast 378 435 10,500 -1,500 Descending Cleveland Center
05:04PM 40.1672 -80.6889 35° Northeast 348 400 9,500 -1,320 Descending Cleveland Center
05:05PM 40.2381 -80.6267 34° Northeast 320 368 7,900 -1,680 Descending Cleveland Center
05:06PM 40.3069 -80.5642 35° Northeast 307 353 6,200 -1,320 Descending Cleveland Center
05:07PM 40.3653 -80.5503 10° North 275 316 5,300 -900 Descending Cleveland Center
05:08PM 40.4444 -80.5558 357° North 258 297 4,500 -900 Descending Cleveland Center
05:09PM 40.5008 -80.5175 27° Northeast 240 276 3,600 -780 Descending Cleveland Center
05:10PM 40.5089 -80.4411 82° East 193 222 3,000 -600 Descending Cleveland Center
05:12PM 40.4915 -80.2329 57° Northeast  Level Estimated
05:19PM 40.4915 -80.2329 57° Northeast  Level Estimated
05:20PM 40.4915 -80.2329 57° Northeast  Level Estimated
05:21PM 40.4915 -80.2329 57° Northeast  Level Estimated